Aviation Digital Data Service (ADDS)

Output produced by METARs form (0512 UTC 24 January 2019)
found at http://www.aviationweather.gov/metar/data/
 
Forecast for: RJNS (SHIZOUKA , JP)
Text: TAF RJNS 232306Z 2400/2506 27020KT 9999 FEW030
Forecast period: 0000 UTC 24 January 2019 to 0600 UTC 25 January 2019
Forecast type: FROM: standard forecast or significant change
Winds: from the W (270 degrees) at 23 MPH (20 knots; 10.3 m/s)
Visibility: 6 or more miles 10+ km)
Ceiling: at least 12,000 feet AGL
Clouds: few clouds at 3000 feet AGL
Weather: no significant weather forecast for this period
Text: TEMPO 2401/2409 27022G32KT
Forecast period: 0100 to 0900 UTC 24 January 2019
Forecast type: TEMPORARY: The following changes expected for less than half the time period
Winds: from the W (270 degrees) at 25 MPH (22 knots; 11.3 m/s)
gusting to 37 MPH (32 knots; 16.5 m/s)
Visibility: missing
Ceiling: unknown
Clouds: missing
Weather: no significant weather forecast for this period